createdAt,value
2023-03-13T00:01:03.014Z,11.00
2023-03-13T00:03:29.641Z,11.00
2023-03-13T00:05:57.710Z,11.00
2023-03-13T00:08:25.725Z,11.10
2023-03-13T00:10:52.502Z,11.00
2023-03-13T00:13:19.101Z,11.10
2023-03-13T00:15:45.750Z,11.10
2023-03-13T00:18:12.478Z,11.10
2023-03-13T00:20:39.109Z,11.10
2023-03-13T00:23:06.134Z,11.00
2023-03-13T00:25:32.753Z,11.00
2023-03-13T00:27:59.387Z,11.00
2023-03-13T00:30:26.100Z,11.00
2023-03-13T00:32:52.927Z,11.00
2023-03-13T00:35:19.875Z,11.00
2023-03-13T00:37:46.529Z,11.00
2023-03-13T00:40:13.335Z,11.00
2023-03-13T00:42:39.914Z,11.00
2023-03-13T00:45:07.115Z,11.00
2023-03-13T00:47:33.737Z,10.90
2023-03-13T00:50:00.325Z,10.90
2023-03-13T00:52:28.107Z,10.90
2023-03-13T00:54:55.448Z,10.90
2023-03-13T00:57:22.099Z,10.90
2023-03-13T00:59:48.676Z,10.90
2023-03-13T01:02:15.388Z,10.90
2023-03-13T01:04:42.128Z,10.90
2023-03-13T01:07:08.696Z,11.00
2023-03-13T01:09:35.292Z,11.00
2023-03-13T01:12:01.883Z,10.90
2023-03-13T01:14:28.646Z,10.90
2023-03-13T01:16:55.216Z,11.00
2023-03-13T01:19:21.807Z,10.90
2023-03-13T01:21:48.570Z,11.00
2023-03-13T01:24:15.232Z,10.90
2023-03-13T01:26:41.879Z,10.90
2023-03-13T01:29:08.430Z,10.90
2023-03-13T01:31:36.586Z,10.90
2023-03-13T01:34:05.726Z,10.70
2023-03-13T01:36:33.330Z,10.70
2023-03-13T01:39:01.006Z,10.70
2023-03-13T01:41:29.678Z,10.70
2023-03-13T01:43:56.992Z,10.70
2023-03-13T01:46:31.414Z,10.70
2023-03-13T01:49:12.813Z,10.70
2023-03-13T01:51:45.330Z,10.70
2023-03-13T01:54:24.850Z,10.70
2023-03-13T01:57:05.701Z,10.70
2023-03-13T01:59:40.362Z,10.70
2023-03-13T02:02:07.747Z,10.70
2023-03-13T02:04:39.224Z,10.70
2023-03-13T02:07:11.808Z,10.70
2023-03-13T02:09:41.816Z,10.60
2023-03-13T02:12:14.964Z,10.60
2023-03-13T02:14:44.932Z,10.60
2023-03-13T02:17:12.700Z,10.70
2023-03-13T02:19:44.039Z,10.70
2023-03-13T02:22:25.297Z,10.70
2023-03-13T02:24:58.862Z,10.70
2023-03-13T02:27:25.532Z,10.80
2023-03-13T02:29:52.856Z,10.90
2023-03-13T02:32:19.922Z,10.90
2023-03-13T02:34:49.947Z,10.90
2023-03-13T02:37:17.550Z,11.00
2023-03-13T02:39:48.080Z,11.00
2023-03-13T02:42:16.443Z,11.00
2023-03-13T02:44:44.451Z,11.00
2023-03-13T02:47:11.104Z,11.00
2023-03-13T02:49:37.837Z,11.00
2023-03-13T02:52:20.562Z,11.00
2023-03-13T02:54:50.894Z,11.00
2023-03-13T02:57:17.489Z,11.00
2023-03-13T02:59:44.147Z,11.10
2023-03-13T03:02:10.723Z,11.10
2023-03-13T03:04:37.328Z,11.10
2023-03-13T03:07:04.204Z,11.10
2023-03-13T03:09:30.843Z,11.10
2023-03-13T03:11:57.438Z,11.10
2023-03-13T03:14:24.219Z,11.10
2023-03-13T03:16:50.823Z,11.20
2023-03-13T03:19:17.462Z,11.20
2023-03-13T03:21:44.972Z,11.20
2023-03-13T03:24:11.607Z,11.30
2023-03-13T03:26:38.267Z,11.30
2023-03-13T03:29:04.877Z,11.30
2023-03-13T03:31:31.832Z,11.30
2023-03-13T03:33:58.649Z,11.30
2023-03-13T03:36:25.451Z,11.30
2023-03-13T03:38:52.643Z,11.30
2023-03-13T03:41:19.632Z,11.30
2023-03-13T03:43:47.513Z,11.30
2023-03-13T03:46:15.172Z,11.30
2023-03-13T03:48:42.317Z,11.40
2023-03-13T03:51:09.354Z,11.40
2023-03-13T03:53:35.996Z,11.40
2023-03-13T03:56:02.830Z,11.40
2023-03-13T03:58:29.589Z,11.40
2023-03-13T04:00:59.904Z,11.50
2023-03-13T04:03:26.930Z,11.50
2023-03-13T04:05:53.826Z,11.50
2023-03-13T04:08:20.384Z,11.50
2023-03-13T04:10:46.977Z,11.50
2023-03-13T04:13:13.738Z,11.50
2023-03-13T04:15:41.162Z,11.60
2023-03-13T04:18:08.031Z,11.60
2023-03-13T04:20:34.887Z,11.60
2023-03-13T04:23:01.574Z,11.60
2023-03-13T04:25:28.475Z,11.60
2023-03-13T04:27:55.059Z,11.60
2023-03-13T04:30:21.865Z,11.70
2023-03-13T04:32:48.601Z,11.70
2023-03-13T04:35:15.602Z,11.80
2023-03-13T04:37:42.333Z,11.80
2023-03-13T04:40:09.662Z,11.70
2023-03-13T04:42:36.238Z,11.80
2023-03-13T04:45:02.897Z,11.80
2023-03-13T04:47:29.556Z,11.80
2023-03-13T04:49:56.140Z,11.80
2023-03-13T04:52:22.927Z,11.90
2023-03-13T04:54:50.994Z,11.90
2023-03-13T04:57:17.686Z,11.90
2023-03-13T04:59:44.282Z,11.80
2023-03-13T05:02:13.321Z,11.80
2023-03-13T05:04:40.265Z,11.90
2023-03-13T05:07:06.926Z,11.90
2023-03-13T05:09:33.546Z,11.90
2023-03-13T05:12:00.234Z,11.90
2023-03-13T05:14:26.958Z,11.90
2023-03-13T05:16:53.533Z,11.90
2023-03-13T05:19:20.165Z,12.00
2023-03-13T05:21:46.883Z,11.90
2023-03-13T05:24:13.450Z,12.00
2023-03-13T05:26:40.121Z,12.00
2023-03-13T05:29:06.743Z,12.00
2023-03-13T05:31:33.383Z,12.00
2023-03-13T05:34:00.097Z,12.10
2023-03-13T05:36:26.677Z,12.00
2023-03-13T05:38:53.352Z,12.10
2023-03-13T05:41:19.956Z,12.10
2023-03-13T05:43:46.587Z,12.10
2023-03-13T05:46:13.194Z,12.10
2023-03-13T05:48:39.808Z,12.10
2023-03-13T05:51:06.479Z,12.20
2023-03-13T05:53:33.068Z,12.10
2023-03-13T05:55:59.635Z,12.20
2023-03-13T05:58:26.390Z,12.30
2023-03-13T06:00:53.022Z,12.30
2023-03-13T06:03:19.667Z,12.30
2023-03-13T06:05:46.342Z,12.30
2023-03-13T06:08:12.962Z,12.40
2023-03-13T06:10:39.552Z,12.40
2023-03-13T06:13:18.968Z,12.50
2023-03-13T06:15:54.181Z,12.50
2023-03-13T06:18:20.995Z,12.40
2023-03-13T06:20:49.459Z,12.50
2023-03-13T06:23:16.754Z,12.50
2023-03-13T06:25:48.421Z,12.60
2023-03-13T06:28:15.795Z,12.60
2023-03-13T06:30:42.565Z,12.60
2023-03-13T06:33:09.289Z,12.70
2023-03-13T06:35:46.251Z,12.70
2023-03-13T06:38:21.698Z,12.80
2023-03-13T06:40:48.283Z,12.80
2023-03-13T06:43:14.920Z,13.00
2023-03-13T06:45:41.555Z,12.90
2023-03-13T06:48:08.155Z,13.00
2023-03-13T06:50:38.798Z,12.90
2023-03-13T06:53:05.591Z,13.00
2023-03-13T06:55:32.717Z,13.00
2023-03-13T06:57:59.344Z,13.00
2023-03-13T07:00:26.100Z,13.00
2023-03-13T07:02:53.805Z,13.10
2023-03-13T07:05:20.404Z,13.00
2023-03-13T07:07:47.021Z,13.00
2023-03-13T07:10:14.176Z,13.00
2023-03-13T07:12:40.850Z,13.00
2023-03-13T07:15:08.116Z,13.10
2023-03-13T07:17:34.983Z,13.10
2023-03-13T07:20:01.729Z,13.10
2023-03-13T07:22:28.372Z,13.00
2023-03-13T07:24:55.058Z,13.10
2023-03-13T07:27:22.464Z,13.10
2023-03-13T07:29:49.808Z,13.10
2023-03-13T07:32:16.589Z,13.20
2023-03-13T07:34:46.148Z,13.20
2023-03-13T07:37:13.938Z,13.20
2023-03-13T07:39:40.571Z,13.30
2023-03-13T07:42:07.311Z,13.30
2023-03-13T07:44:33.896Z,13.30
2023-03-13T07:47:01.207Z,13.20
2023-03-13T07:49:27.899Z,13.40
2023-03-13T07:51:54.693Z,13.40
2023-03-13T07:54:21.372Z,13.40
2023-03-13T07:56:48.750Z,13.40
2023-03-13T07:59:15.364Z,13.50
2023-03-13T08:01:42.038Z,13.50
2023-03-13T08:04:13.012Z,13.50
2023-03-13T08:06:41.037Z,13.60
2023-03-13T08:09:08.607Z,13.60
2023-03-13T08:11:35.474Z,13.70
2023-03-13T08:14:02.115Z,13.70
2023-03-13T08:16:32.118Z,13.70
2023-03-13T08:18:59.781Z,13.70
2023-03-13T08:21:29.000Z,13.80
2023-03-13T08:23:57.860Z,13.80
2023-03-13T08:26:26.967Z,13.80
2023-03-13T08:29:02.176Z,13.80
2023-03-13T08:31:31.829Z,13.80
2023-03-13T08:33:59.292Z,13.80
2023-03-13T08:36:34.498Z,13.80
2023-03-13T08:39:13.290Z,13.90
2023-03-13T08:41:42.724Z,13.80
2023-03-13T08:44:14.755Z,13.80
2023-03-13T08:46:42.353Z,13.80
2023-03-13T08:49:09.478Z,13.90
2023-03-13T08:51:37.035Z,13.90
2023-03-13T08:54:04.484Z,14.00
2023-03-13T08:56:31.928Z,14.10
2023-03-13T08:59:01.195Z,14.00
2023-03-13T09:01:33.436Z,14.10
2023-03-13T09:04:03.483Z,14.10
2023-03-13T09:06:31.599Z,14.10
2023-03-13T09:08:58.359Z,14.10
2023-03-13T09:11:25.937Z,14.10
2023-03-13T09:13:53.094Z,14.10
2023-03-13T09:16:22.296Z,14.10
2023-03-13T09:18:50.813Z,14.10
2023-03-13T09:21:25.816Z,14.10
2023-03-13T09:23:53.020Z,14.10
2023-03-13T09:26:22.759Z,14.10
2023-03-13T09:28:50.938Z,14.10
2023-03-13T09:31:27.186Z,14.10
2023-03-13T09:33:54.675Z,14.20
2023-03-13T09:36:23.632Z,14.20
2023-03-13T09:38:51.927Z,14.20
2023-03-13T09:41:18.516Z,14.20
2023-03-13T09:44:00.130Z,14.20
2023-03-13T09:46:50.628Z,14.20
2023-03-13T09:49:34.770Z,14.30
2023-03-13T09:52:23.954Z,14.40
2023-03-13T09:55:16.079Z,14.60
2023-03-13T09:58:12.892Z,14.70
2023-03-13T10:00:43.411Z,14.70
2023-03-13T10:03:23.251Z,14.80
2023-03-13T10:05:59.297Z,14.90
2023-03-13T10:08:31.340Z,15.00
2023-03-13T10:11:03.033Z,15.10
2023-03-13T10:13:52.541Z,15.10
2023-03-13T10:16:57.518Z,15.20
2023-03-13T10:19:32.336Z,15.40
2023-03-13T10:22:03.881Z,15.50
2023-03-13T10:24:51.442Z,15.40
2023-03-13T10:27:18.036Z,15.50
2023-03-13T10:29:44.687Z,15.40
2023-03-13T10:32:15.419Z,15.50
2023-03-13T10:35:00.672Z,15.60
2023-03-13T10:37:39.726Z,15.60
2023-03-13T10:40:14.774Z,15.60
2023-03-13T10:42:45.552Z,15.60
2023-03-13T10:45:17.467Z,15.70
2023-03-13T10:47:44.338Z,15.60
2023-03-13T10:50:22.148Z,15.80
2023-03-13T10:52:50.449Z,15.80
2023-03-13T10:55:25.599Z,15.80
2023-03-13T10:58:02.200Z,15.80
2023-03-13T11:00:38.551Z,15.90
2023-03-13T11:03:34.359Z,16.00
2023-03-13T11:06:03.250Z,16.00
2023-03-13T11:08:37.007Z,16.00
2023-03-13T11:11:18.796Z,16.00
2023-03-13T11:13:45.669Z,16.00
2023-03-13T11:16:15.100Z,16.00
2023-03-13T11:19:18.983Z,16.10
2023-03-13T11:22:13.200Z,16.10
2023-03-13T11:24:50.852Z,16.20
2023-03-13T11:27:35.720Z,16.20
2023-03-13T11:30:19.182Z,16.30
2023-03-13T11:32:55.795Z,16.30
2023-03-13T11:35:31.614Z,16.40
2023-03-13T11:38:00.295Z,16.50
2023-03-13T11:40:49.524Z,16.50
2023-03-13T11:43:31.172Z,16.40
2023-03-13T11:46:19.805Z,16.50
2023-03-13T11:48:49.541Z,16.40
2023-03-13T11:51:44.733Z,16.60
2023-03-13T11:54:32.678Z,16.60
2023-03-13T11:57:21.608Z,16.50
2023-03-13T12:00:27.093Z,16.60
2023-03-13T12:03:35.168Z,16.60
2023-03-13T12:06:03.478Z,16.50
2023-03-13T12:08:42.455Z,16.60
2023-03-13T12:11:31.495Z,16.70
2023-03-13T12:14:06.271Z,16.60
2023-03-13T12:17:04.114Z,16.60
2023-03-13T12:19:49.621Z,16.60
2023-03-13T12:22:53.723Z,16.50
2023-03-13T12:25:54.686Z,16.50
2023-03-13T12:28:36.443Z,16.50
2023-03-13T12:31:17.393Z,16.60
2023-03-13T12:33:59.771Z,16.80
2023-03-13T12:36:56.750Z,17.00
2023-03-13T12:39:35.450Z,16.90
2023-03-13T12:42:33.096Z,16.90
2023-03-13T12:45:00.099Z,16.80
2023-03-13T12:47:33.819Z,17.20
2023-03-13T12:50:23.522Z,17.10
2023-03-13T12:53:18.071Z,17.30
2023-03-13T12:56:00.796Z,17.00
2023-03-13T12:58:47.934Z,17.20
2023-03-13T13:01:30.376Z,17.20
2023-03-13T13:03:59.360Z,17.30
2023-03-13T13:06:28.454Z,17.20
2023-03-13T13:08:55.003Z,17.00
2023-03-13T13:11:33.758Z,17.00
2023-03-13T13:14:01.791Z,17.10
2023-03-13T13:16:28.988Z,17.30
2023-03-13T13:18:55.592Z,17.50
2023-03-13T13:21:26.611Z,17.80
2023-03-13T13:23:56.378Z,17.70
2023-03-13T13:26:36.262Z,17.50
2023-03-13T13:29:11.686Z,17.30
2023-03-13T13:31:49.368Z,17.40
2023-03-13T13:34:28.134Z,17.30
2023-03-13T13:36:56.274Z,17.20
2023-03-13T13:39:52.610Z,17.00
2023-03-13T13:42:31.557Z,16.90
2023-03-13T13:45:03.266Z,16.80
2023-03-13T13:47:33.673Z,16.80
2023-03-13T13:50:00.929Z,16.90
2023-03-13T13:52:33.736Z,16.90
2023-03-13T13:55:00.825Z,17.00
2023-03-13T13:57:32.021Z,17.10
2023-03-13T14:00:19.805Z,17.10
2023-03-13T14:02:52.251Z,16.90
2023-03-13T14:05:24.429Z,16.80
2023-03-13T14:08:14.308Z,16.70
2023-03-13T14:10:48.474Z,16.60
2023-03-13T14:13:20.540Z,16.50
2023-03-13T14:15:49.291Z,16.50
2023-03-13T14:18:34.524Z,16.50
2023-03-13T14:21:03.389Z,16.50
2023-03-13T14:23:48.556Z,16.40
2023-03-13T14:26:29.276Z,16.40
2023-03-13T14:29:07.783Z,16.50
2023-03-13T14:31:37.349Z,16.60
2023-03-13T14:34:06.737Z,16.60
2023-03-13T14:36:59.181Z,16.60
2023-03-13T14:39:34.129Z,16.80
2023-03-13T14:42:15.585Z,17.20
2023-03-13T14:44:46.346Z,17.10
2023-03-13T14:47:26.552Z,16.80
2023-03-13T14:49:59.967Z,16.60
2023-03-13T14:52:28.068Z,16.50
2023-03-13T14:55:04.344Z,16.50
2023-03-13T14:57:35.954Z,16.40
2023-03-13T15:00:30.584Z,16.40
2023-03-13T15:03:19.895Z,16.40
2023-03-13T15:05:47.770Z,16.30
2023-03-13T15:08:20.694Z,16.20
2023-03-13T15:10:48.323Z,16.20
2023-03-13T15:13:26.122Z,16.20
2023-03-13T15:15:53.101Z,16.10
2023-03-13T15:18:33.064Z,16.10
2023-03-13T15:21:22.698Z,16.20
2023-03-13T15:24:13.804Z,16.90
2023-03-13T15:26:40.473Z,17.50
2023-03-13T15:29:07.177Z,17.70
2023-03-13T15:31:33.839Z,17.80
2023-03-13T15:34:01.458Z,17.80
2023-03-13T15:36:29.764Z,18.10
2023-03-13T15:38:56.508Z,18.10
2023-03-13T15:41:24.052Z,18.00
2023-03-13T15:43:52.462Z,18.00
2023-03-13T15:46:20.492Z,18.00
2023-03-13T15:48:47.879Z,18.10
2023-03-13T15:51:18.793Z,18.30
2023-03-13T15:53:46.364Z,18.10
2023-03-13T15:56:17.264Z,18.00
2023-03-13T15:58:45.262Z,17.70
2023-03-13T16:01:13.682Z,18.00
2023-03-13T16:03:40.948Z,18.10
2023-03-13T16:06:14.236Z,18.20
2023-03-13T16:08:40.967Z,18.10
2023-03-13T16:11:07.676Z,18.20
2023-03-13T16:13:34.383Z,18.30
2023-03-13T16:16:00.999Z,18.00
2023-03-13T16:18:27.639Z,18.20
2023-03-13T16:20:54.310Z,18.40
2023-03-13T16:23:20.958Z,18.00
2023-03-13T16:25:48.947Z,17.90
2023-03-13T16:28:16.208Z,17.60
2023-03-13T16:30:47.643Z,17.40
2023-03-13T16:33:14.918Z,17.30
2023-03-13T16:35:41.691Z,17.20
2023-03-13T16:38:11.102Z,17.30
2023-03-13T16:40:37.791Z,17.10
2023-03-13T16:43:04.443Z,17.00
2023-03-13T16:45:31.027Z,17.10
2023-03-13T16:47:57.676Z,16.80
2023-03-13T16:50:28.245Z,16.60
2023-03-13T16:52:55.322Z,16.40
2023-03-13T16:55:27.938Z,16.30
2023-03-13T16:57:58.571Z,16.20
2023-03-13T17:00:27.275Z,16.10
2023-03-13T17:02:54.803Z,16.00
2023-03-13T17:05:21.532Z,16.00
2023-03-13T17:07:50.171Z,15.90
2023-03-13T17:10:19.039Z,15.90
2023-03-13T17:12:46.027Z,15.70
2023-03-13T17:15:13.027Z,15.70
2023-03-13T17:17:40.380Z,15.80
2023-03-13T17:20:09.674Z,15.70
2023-03-13T17:22:36.342Z,15.70
2023-03-13T17:25:03.439Z,15.70
2023-03-13T17:27:30.459Z,15.70
2023-03-13T17:29:57.135Z,15.60
2023-03-13T17:32:25.147Z,15.60
2023-03-13T17:34:52.374Z,15.60
2023-03-13T17:37:21.007Z,15.60
2023-03-13T17:39:49.364Z,15.50
2023-03-13T17:42:16.197Z,15.50
2023-03-13T17:44:42.860Z,15.50
2023-03-13T17:47:14.957Z,15.40
2023-03-13T17:49:42.809Z,15.40
2023-03-13T17:52:18.464Z,15.30
2023-03-13T17:54:45.833Z,15.30
2023-03-13T17:57:18.577Z,15.30
2023-03-13T17:59:46.013Z,15.40
2023-03-13T18:02:14.508Z,15.30
2023-03-13T18:04:43.414Z,15.20
2023-03-13T18:07:26.371Z,15.20
2023-03-13T18:09:53.120Z,15.20
2023-03-13T18:12:19.988Z,15.20
2023-03-13T18:14:47.026Z,15.20
2023-03-13T18:17:17.121Z,15.10
2023-03-13T18:19:44.190Z,15.10
2023-03-13T18:22:19.468Z,15.00
2023-03-13T18:24:46.108Z,15.00
2023-03-13T18:27:17.777Z,15.00
2023-03-13T18:29:46.001Z,14.90
2023-03-13T18:32:14.573Z,14.90
2023-03-13T18:34:41.749Z,14.90
2023-03-13T18:37:18.108Z,14.90
2023-03-13T18:39:44.857Z,14.90
2023-03-13T18:42:11.570Z,14.80
2023-03-13T18:44:38.251Z,14.80
2023-03-13T18:47:16.695Z,14.80
2023-03-13T18:49:43.674Z,14.70
2023-03-13T18:52:11.377Z,14.70
2023-03-13T18:54:38.471Z,14.70
2023-03-13T18:57:17.782Z,14.60
2023-03-13T18:59:45.156Z,14.50
2023-03-13T19:02:16.365Z,14.50
2023-03-13T19:04:43.931Z,14.50
2023-03-13T19:07:16.313Z,14.60
2023-03-13T19:09:45.377Z,14.50
2023-03-13T19:12:13.338Z,14.50
2023-03-13T19:14:40.068Z,14.50
2023-03-13T19:17:28.892Z,14.50
2023-03-13T19:19:58.911Z,14.50
2023-03-13T19:22:26.122Z,14.50
2023-03-13T19:24:52.824Z,14.40
2023-03-13T19:27:19.577Z,14.40
2023-03-13T19:29:46.299Z,14.40
2023-03-13T19:32:17.760Z,14.40
2023-03-13T19:34:44.705Z,14.40
2023-03-13T19:37:15.601Z,14.30
2023-03-13T19:39:42.599Z,14.30
2023-03-13T19:42:09.335Z,14.30
2023-03-13T19:44:36.557Z,14.20
2023-03-13T19:47:04.478Z,14.20
2023-03-13T19:49:31.424Z,14.20
2023-03-13T19:51:58.430Z,14.10
2023-03-13T19:54:25.048Z,14.10
2023-03-13T19:56:53.358Z,14.10
2023-03-13T19:59:26.678Z,14.00
2023-03-13T20:01:55.598Z,14.00
2023-03-13T20:04:22.546Z,14.00
2023-03-13T20:06:49.159Z,14.00
2023-03-13T20:09:17.610Z,13.90
2023-03-13T20:11:45.041Z,13.90
2023-03-13T20:14:12.417Z,13.90
2023-03-13T20:16:39.129Z,13.80
2023-03-13T20:19:05.946Z,13.80
2023-03-13T20:21:35.253Z,13.80
2023-03-13T20:24:02.272Z,13.80
2023-03-13T20:26:30.045Z,13.70
2023-03-13T20:28:57.273Z,13.60
2023-03-13T20:31:27.687Z,13.60
2023-03-13T20:33:55.447Z,13.60
2023-03-13T20:36:22.817Z,13.60
2023-03-13T20:38:49.445Z,13.50
2023-03-13T20:41:16.475Z,13.50
2023-03-13T20:43:43.455Z,13.60
2023-03-13T20:46:10.236Z,13.50
2023-03-13T20:48:42.247Z,13.40
2023-03-13T20:51:09.408Z,13.40
2023-03-13T20:53:37.867Z,13.40
2023-03-13T20:56:06.987Z,13.30
2023-03-13T20:58:37.360Z,13.30
2023-03-13T21:01:05.914Z,13.30
2023-03-13T21:03:35.142Z,13.30
2023-03-13T21:06:12.618Z,13.30
2023-03-13T21:08:39.405Z,13.20
2023-03-13T21:11:17.144Z,13.20
2023-03-13T21:13:43.804Z,13.20
2023-03-13T21:16:11.340Z,13.10
2023-03-13T21:18:37.996Z,13.10
2023-03-13T21:21:06.978Z,13.00
2023-03-13T21:23:33.879Z,13.00
2023-03-13T21:26:00.736Z,13.00
2023-03-13T21:28:28.507Z,13.00
2023-03-13T21:30:55.864Z,13.00
2023-03-13T21:33:23.236Z,13.00
2023-03-13T21:35:50.491Z,13.10
2023-03-13T21:38:17.803Z,13.00
2023-03-13T21:40:44.423Z,12.90
2023-03-13T21:43:10.999Z,13.00
2023-03-13T21:45:37.645Z,12.90
2023-03-13T21:48:04.394Z,12.90
2023-03-13T21:50:32.560Z,12.80
2023-03-13T21:52:59.252Z,12.80
2023-03-13T21:55:25.943Z,12.80
2023-03-13T21:57:52.534Z,12.80
2023-03-13T22:00:19.425Z,12.60
2023-03-13T22:02:46.254Z,12.60
2023-03-13T22:05:12.918Z,12.60
2023-03-13T22:07:39.584Z,12.60
2023-03-13T22:10:06.547Z,12.70
2023-03-13T22:12:33.325Z,12.60
2023-03-13T22:14:59.961Z,12.60
2023-03-13T22:17:26.709Z,12.60
2023-03-13T22:19:53.307Z,12.60
2023-03-13T22:22:21.761Z,12.60
2023-03-13T22:24:48.523Z,12.60
2023-03-13T22:27:15.539Z,12.60
2023-03-13T22:29:42.189Z,12.60
2023-03-13T22:32:09.566Z,12.40
2023-03-13T22:34:36.335Z,12.50
2023-03-13T22:37:03.317Z,12.40
2023-03-13T22:39:29.984Z,12.40
2023-03-13T22:41:56.613Z,12.40
2023-03-13T22:44:23.226Z,12.40
2023-03-13T22:46:49.806Z,12.40
2023-03-13T22:49:16.544Z,12.30
2023-03-13T22:51:43.219Z,12.30
2023-03-13T22:54:09.901Z,12.20
2023-03-13T22:56:36.753Z,12.30
2023-03-13T22:59:03.613Z,12.30
2023-03-13T23:01:30.338Z,12.30
2023-03-13T23:03:57.086Z,12.20
2023-03-13T23:06:25.364Z,12.30
2023-03-13T23:08:52.542Z,12.30
2023-03-13T23:11:19.517Z,12.30
2023-03-13T23:13:46.213Z,12.30
2023-03-13T23:16:13.238Z,12.30
2023-03-13T23:18:40.282Z,12.30
2023-03-13T23:21:10.051Z,12.20
2023-03-13T23:23:36.893Z,12.30
2023-03-13T23:26:06.418Z,12.20
2023-03-13T23:28:34.750Z,12.20
2023-03-13T23:31:19.152Z,12.20
2023-03-13T23:33:46.762Z,12.30
2023-03-13T23:36:16.424Z,12.40
2023-03-13T23:38:43.166Z,12.40
2023-03-13T23:41:14.172Z,12.30
2023-03-13T23:43:41.235Z,12.40
2023-03-13T23:46:27.462Z,12.30
2023-03-13T23:48:55.773Z,12.40
2023-03-13T23:51:23.045Z,12.30
2023-03-13T23:53:50.071Z,12.40
2023-03-13T23:56:16.954Z,12.40
2023-03-13T23:58:44.106Z,12.30
